Time;durP1;ratioP1;P1;durP2;ratioP2;P2;SDS_P1;SDS_P2;PMS_P1;PMS_P2;Temp;Humidity;BMP_temperature;BMP_pressure;BME280_temperature;BME280_humidity;BME280_pressure;Samples;Min_cycle;Max_cycle;Signal;HPM_P1;HPM_P2
2023/04/05 00:00:34;;;;;;;3.17;1.70;;;5.50;88.80;;;5.40;69.02;101756.19;5174169;28;20068;-80
2023/04/05 00:03:08;;;;;;;4.65;2.28;;;5.50;89.10;;;5.41;69.23;101747.63;5170286;28;20050;-79
2023/04/05 00:05:44;;;;;;;5.38;2.10;;;5.50;89.70;;;5.41;69.71;101742.44;5166918;28;20418;-79
2023/04/05 00:08:23;;;;;;;2.92;1.45;;;5.50;90.10;;;5.41;69.08;101737.28;5184814;28;20060;-79
2023/04/05 00:10:57;;;;;;;3.88;2.10;;;5.50;89.50;;;5.40;68.33;101731.22;5160158;28;20463;-79
2023/04/05 00:13:30;;;;;;;3.03;1.60;;;5.50;89.00;;;5.40;68.09;101735.50;5165010;28;20045;-80
2023/04/05 00:16:03;;;;;;;4.40;1.92;;;5.50;88.60;;;5.38;68.53;101737.97;5157418;28;20046;-79
2023/04/05 00:18:37;;;;;;;4.00;1.70;;;5.50;88.90;;;5.39;68.18;101736.28;5164757;28;20107;-79
2023/04/05 00:21:10;;;;;;;3.40;1.55;;;5.50;88.50;;;5.34;67.75;101729.88;5169982;28;20415;-81
2023/04/05 00:23:43;;;;;;;2.65;1.65;;;5.40;87.90;;;5.34;67.44;101724.72;5192720;28;20087;-80
2023/04/05 00:26:19;;;;;;;3.85;1.60;;;5.40;87.70;;;5.33;67.84;101722.94;5185035;28;20516;-79
2023/04/05 00:28:56;;;;;;;4.03;1.95;;;5.50;88.00;;;5.33;67.88;101717.75;5181749;28;20045;-80
2023/04/05 00:31:32;;;;;;;3.50;1.85;;;5.40;88.30;;;5.31;69.13;101719.34;5190260;28;20046;-79
2023/04/05 00:34:07;;;;;;;4.47;2.05;;;5.40;89.30;;;5.27;68.91;101712.16;5165215;28;20046;-80
2023/04/05 00:36:40;;;;;;;3.60;1.92;;;5.40;90.00;;;5.25;69.52;101719.81;5163394;28;20061;-79
2023/04/05 00:39:13;;;;;;;4.18;2.10;;;5.40;90.20;;;5.18;70.12;101718.47;5165897;28;20051;-81
2023/04/05 00:41:46;;;;;;;3.63;1.80;;;5.30;90.60;;;5.18;70.11;101720.16;5155443;28;20124;-79
2023/04/05 00:44:19;;;;;;;5.88;2.22;;;5.30;90.70;;;5.19;70.19;101719.38;5163028;28;20157;-81
2023/04/05 00:46:52;;;;;;;4.30;2.58;;;5.30;90.60;;;5.21;70.69;101725.53;5189538;28;20458;-79
2023/04/05 00:49:25;;;;;;;3.38;1.83;;;5.30;91.10;;;5.19;70.81;101721.94;5173287;28;20042;-80
2023/04/05 00:51:58;;;;;;;3.47;1.63;;;5.30;91.10;;;5.19;71.87;101721.94;5169487;28;20052;-80
2023/04/05 00:54:33;;;;;;;2.92;1.60;;;5.30;92.00;;;5.18;71.90;101723.66;5174621;28;20148;-80
2023/04/05 00:57:07;;;;;;;2.70;1.73;;;5.30;92.00;;;5.15;73.01;101722.50;5172128;28;20058;-81
2023/04/05 00:59:40;;;;;;;5.05;2.53;;;5.30;92.70;;;5.13;73.54;101724.09;5171797;28;20406;-79
2023/04/05 01:02:23;;;;;;;3.75;1.60;;;5.30;93.10;;;5.13;73.84;101719.81;5156185;28;20042;-80
2023/04/05 01:05:04;;;;;;;3.10;1.95;;;5.30;93.40;;;5.10;73.71;101718.72;5173471;28;20050;-80
2023/04/05 01:07:43;;;;;;;4.82;1.80;;;5.20;93.70;;;5.10;74.37;101719.63;5173507;28;20052;-79
2023/04/05 01:10:18;;;;;;;3.65;2.00;;;5.20;94.20;;;5.10;75.09;101711.88;5177876;28;20046;-80
2023/04/05 01:12:54;;;;;;;3.97;2.00;;;5.20;94.60;;;5.10;74.93;101714.47;5181441;28;20041;-79
2023/04/05 01:15:26;;;;;;;4.20;2.00;;;5.30;94.80;;;5.10;74.62;101714.47;5174254;28;20057;-80
2023/04/05 01:18:00;;;;;;;4.28;1.92;;;5.20;94.80;;;5.09;75.14;101704.00;5153683;28;20133;-80
2023/04/05 01:20:43;;;;;;;4.55;2.10;;;5.20;95.10;;;5.04;75.76;101703.69;5164382;28;20054;-79
2023/04/05 01:23:43;;;;;;;3.17;1.90;;;5.20;95.60;;;5.02;76.36;101700.09;5164289;28;20054;-80
2023/04/05 01:26:47;;;;;;;4.00;1.73;;;5.10;96.10;;;4.98;76.61;101698.06;5173022;28;20567;-80
2023/04/05 01:30:02;;;;;;;3.70;1.70;;;5.10;96.60;;;4.97;78.01;101703.13;5161435;28;20479;-81
2023/04/05 01:32:47;;;;;;;6.55;1.98;;;5.10;97.30;;;4.96;78.39;101693.59;5168081;28;20522;-80
2023/04/05 01:35:37;;;;;;;3.55;1.63;;;5.10;98.10;;;4.92;78.46;101700.22;5172412;28;20050;-79
2023/04/05 01:38:14;;;;;;;3.30;1.90;;;5.10;98.30;;;4.89;79.06;101700.00;5151602;28;20580;-80
2023/04/05 01:40:47;;;;;;;2.78;1.73;;;5.10;98.60;;;4.86;79.38;101702.34;5174288;28;20600;-81
2023/04/05 01:43:22;;;;;;;4.75;2.00;;;5.00;99.00;;;4.83;80.19;101705.63;5182777;28;20054;-79
2023/04/05 01:46:02;;;;;;;3.97;2.03;;;5.00;99.40;;;4.81;80.24;101699.44;5182826;28;20042;-80
2023/04/05 01:48:36;;;;;;;3.35;1.90;;;5.00;99.90;;;4.82;80.73;101700.31;5194780;28;20144;-79
2023/04/05 01:51:08;;;;;;;3.35;2.05;;;5.00;99.90;;;4.81;80.08;101698.53;5175252;28;20096;-80
2023/04/05 01:53:41;;;;;;;3.65;2.08;;;4.90;99.90;;;4.79;80.22;101697.53;5189989;28;20063;-80
2023/04/05 01:56:13;;;;;;;4.80;1.95;;;4.90;99.90;;;4.77;79.85;101692.25;5168060;28;20073;-80
2023/04/05 01:58:46;;;;;;;4.35;1.88;;;4.90;99.80;;;4.77;79.97;101694.84;5174318;28;20037;-79
2023/04/05 02:01:19;;;;;;;4.47;1.98;;;4.90;99.90;;;4.75;80.23;101695.50;5152429;28;20088;-79
2023/04/05 02:03:52;;;;;;;4.88;1.83;;;4.90;99.90;;;4.72;79.86;101685.88;5180439;28;20141;-79
2023/04/05 02:06:26;;;;;;;4.82;2.08;;;4.90;99.70;;;4.72;78.24;101685.88;5158283;28;20068;-80
2023/04/05 02:09:01;;;;;;;3.35;1.95;;;4.80;99.10;;;4.73;78.15;101684.19;5149889;28;20606;-80
2023/04/05 02:11:34;;;;;;;3.08;1.90;;;4.90;99.00;;;4.73;78.19;101679.00;5167030;28;20048;-79
2023/04/05 02:14:07;;;;;;;3.83;2.30;;;4.90;99.00;;;4.73;77.85;101684.19;5186230;28;20482;-79
2023/04/05 02:16:41;;;;;;;5.78;2.33;;;4.80;99.10;;;4.72;77.86;101685.88;5170211;28;20665;-80
2023/04/05 02:19:21;;;;;;;2.95;1.52;;;4.90;98.90;;;4.72;78.22;101685.88;5166491;28;20053;-80
2023/04/05 02:21:54;;;;;;;3.72;1.80;;;4.80;99.10;;;4.72;77.49;101678.13;5164943;28;20064;-80
2023/04/05 02:24:29;;;;;;;4.60;2.45;;;4.80;98.80;;;4.72;77.02;101682.38;5162273;28;20417;-80
2023/04/05 02:27:02;;;;;;;4.13;3.00;;;4.80;98.40;;;4.73;76.41;101679.00;5179071;28;20722;-79
2023/04/05 02:29:36;;;;;;;4.78;2.25;;;4.80;97.90;;;4.76;75.69;101681.78;5162608;28;20080;-80
2023/04/05 02:32:10;;;;;;;3.17;1.95;;;4.90;97.70;;;4.74;75.76;101685.97;5194976;28;20396;-80
2023/04/05 02:34:43;;;;;;;5.10;2.00;;;4.90;97.60;;;4.69;76.27;101680.47;5171155;28;20348;-79
2023/04/05 02:37:18;;;;;;;5.70;1.85;;;4.80;97.90;;;4.65;77.04;101680.16;5178554;28;20065;-80
2023/04/05 02:39:51;;;;;;;5.18;1.70;;;4.80;98.40;;;4.58;77.63;101674.53;5178899;28;20069;-79
2023/04/05 02:42:24;;;;;;;3.95;2.05;;;4.80;98.70;;;4.54;78.22;101672.50;5165498;28;20046;-80
2023/04/05 02:44:56;;;;;;;4.20;1.80;;;4.70;99.00;;;4.48;78.77;101671.16;5181263;28;20061;-80
2023/04/05 02:47:30;;;;;;;3.03;1.80;;;4.60;99.30;;;4.42;79.20;101671.59;5178280;28;20450;-79
2023/04/05 02:50:06;;;;;;;3.97;2.00;;;4.60;99.60;;;4.34;79.88;101672.75;5178315;28;20073;-79
2023/04/05 02:52:45;;;;;;;3.83;2.38;;;4.50;99.90;;;4.28;80.70;101674.88;5170188;28;20051;-81
2023/04/05 02:55:18;;;;;;;4.80;1.90;;;4.40;99.90;;;4.18;81.41;101670.72;5188108;28;20053;-79
2023/04/05 02:57:51;;;;;;;2.60;1.83;;;4.40;99.90;;;4.15;81.68;101669.59;5183955;28;20052;-80
2023/04/05 03:00:31;;;;;;;4.28;1.95;;;4.30;99.90;;;4.09;82.12;101677.75;5160208;28;20054;-80
2023/04/05 03:03:09;;;;;;;4.72;2.00;;;4.30;99.90;;;4.02;82.44;101672.94;5156583;28;20119;-79
2023/04/05 03:05:47;;;;;;;3.97;2.00;;;4.20;99.90;;;3.94;83.15;101668.88;5158136;28;20060;-79
2023/04/05 03:08:23;;;;;;;4.13;1.92;;;4.10;99.90;;;3.87;83.21;101671.78;5152205;28;20078;-81
2023/04/05 03:11:06;;;;;;;3.53;2.00;;;4.10;99.90;;;3.81;84.07;101675.69;5148699;28;20139;-79
2023/04/05 03:13:40;;;;;;;3.15;1.95;;;4.00;99.90;;;3.77;84.74;101670.19;5145544;28;20129;-79
2023/04/05 03:16:20;;;;;;;4.90;1.75;;;3.90;99.90;;;3.72;85.24;101671.53;5163489;28;20505;-80
2023/04/05 03:18:54;;;;;;;4.60;2.13;;;3.90;99.90;;;3.66;85.42;101671.06;5161012;28;20046;-79
2023/04/05 03:21:28;;;;;;;3.90;2.10;;;3.90;99.90;;;3.59;85.82;101668.81;5173132;28;20145;-80
2023/04/05 03:24:09;;;;;;;3.33;1.85;;;3.80;99.90;;;3.53;86.35;101672.72;5197263;28;20145;-79
2023/04/05 03:26:48;;;;;;;6.32;2.28;;;3.70;99.90;;;3.47;86.54;101669.66;5165381;28;20053;-80
2023/04/05 03:29:24;;;;;;;4.72;2.35;;;3.70;99.90;;;3.42;87.03;101676.13;5185651;28;20101;-80
2023/04/05 03:32:00;;;;;;;4.25;2.10;;;3.60;99.90;;;3.39;87.60;101681.06;5177525;28;20042;-79
2023/04/05 03:34:34;;;;;;;4.10;2.40;;;3.60;99.90;;;3.39;87.61;101687.88;5162319;28;20400;-80
2023/04/05 03:37:09;;;;;;;3.83;2.03;;;3.60;99.90;;;3.36;87.97;101679.91;5161970;28;20046;-79
2023/04/05 03:39:52;;;;;;;3.05;2.15;;;3.60;99.90;;;3.32;87.90;101681.34;5178441;28;20045;-80
2023/04/05 03:42:25;;;;;;;4.38;2.20;;;3.50;99.90;;;3.30;88.09;101676.84;5185698;28;20050;-79
2023/04/05 03:45:00;;;;;;;3.83;2.33;;;3.50;99.90;;;3.28;87.85;101674.16;5177832;28;20057;-80
2023/04/05 03:47:32;;;;;;;5.60;2.80;;;3.50;99.90;;;3.26;87.90;101676.63;5177608;28;20054;-81
2023/04/05 03:50:12;;;;;;;5.10;2.38;;;3.50;99.90;;;3.25;87.26;101671.34;5182311;28;20057;-80
2023/04/05 03:52:45;;;;;;;4.88;2.42;;;3.40;99.90;;;3.22;87.01;101665.97;5148137;28;20042;-79
2023/04/05 03:55:18;;;;;;;4.28;2.35;;;3.40;99.90;;;3.18;85.49;101662.22;5153470;28;20058;-81
2023/04/05 03:57:52;;;;;;;4.78;2.30;;;3.40;99.90;;;3.18;85.00;101663.91;5169708;28;20052;-79
2023/04/05 04:00:33;;;;;;;6.75;2.92;;;3.40;99.90;;;3.16;84.68;101657.75;5165084;28;20050;-80
2023/04/05 04:03:27;;;;;;;5.32;2.40;;;3.40;99.90;;;3.15;84.54;101655.97;5174140;28;20077;-79
2023/04/05 04:06:04;;;;;;;6.20;3.30;;;3.40;99.90;;;3.14;83.74;101654.16;5181024;28;20149;-80
2023/04/05 04:08:38;;;;;;;5.95;3.75;;;3.30;99.90;;;3.15;83.96;101659.44;5165675;28;20047;-80
2023/04/05 04:11:11;;;;;;;5.43;3.65;;;3.30;99.90;;;3.14;83.06;101662.78;5172614;28;20170;-80
2023/04/05 04:13:47;;;;;;;7.20;3.85;;;3.40;99.90;;;3.15;83.14;101658.53;5180978;28;20108;-80
2023/04/05 04:16:29;;;;;;;6.70;3.72;;;3.40;99.90;;;3.14;83.16;101656.75;5174927;28;20064;-79
2023/04/05 04:19:20;;;;;;;6.43;3.65;;;3.30;99.90;;;3.12;83.10;101653.13;5162527;28;20058;-80
2023/04/05 04:22:22;;;;;;;6.88;4.60;;;3.30;99.90;;;3.09;83.31;101655.47;5173764;28;20104;-80
2023/04/05 04:25:13;;;;;;;6.75;3.50;;;3.30;99.90;;;3.04;83.80;101654.22;5187483;28;20054;-79
2023/04/05 04:28:09;;;;;;;7.65;3.50;;;3.30;99.90;;;3.02;84.06;101654.09;5148157;28;20516;-81
2023/04/05 04:30:54;;;;;;;7.70;3.55;;;3.20;99.90;;;3.00;84.18;101658.25;5169100;28;20078;-79
2023/04/05 04:33:50;;;;;;;7.88;3.53;;;3.20;99.90;;;2.97;84.17;101666.59;5183369;28;20180;-80
2023/04/05 04:36:38;;;;;;;8.95;4.30;;;3.20;99.90;;;2.93;84.18;101656.84;5164940;28;20160;-80
2023/04/05 04:39:48;;;;;;;11.23;5.55;;;3.10;99.90;;;2.85;84.67;101663.06;5103913;29;20051;-81
2023/04/05 04:42:46;;;;;;;12.65;5.82;;;3.10;99.90;;;2.78;85.23;101654.72;5180139;28;20046;-79
2023/04/05 04:45:37;;;;;;;12.77;6.43;;;3.00;99.90;;;2.69;85.38;101649.75;5164455;28;20054;-80
2023/04/05 04:48:18;;;;;;;18.33;7.90;;;2.90;99.90;;;2.65;86.05;101656.31;5168979;28;20053;-80
2023/04/05 04:50:57;;;;;;;19.15;7.68;;;2.90;99.90;;;2.60;86.30;101660.19;5168453;28;20533;-79
2023/04/05 04:53:31;;;;;;;21.15;7.85;;;2.90;99.90;;;2.59;86.72;101660.09;5169735;23;20033;-70
2023/04/05 04:56:09;;;;;;;17.08;6.40;;;2.80;99.90;;;2.56;87.25;101663.31;5194097;28;20067;-70
2023/04/05 04:58:41;;;;;;;14.60;5.22;;;2.80;99.90;;;2.55;87.08;101665.78;5184901;28;20112;-70
2023/04/05 05:01:15;;;;;;;11.00;4.90;;;2.80;99.90;;;2.53;86.85;101667.31;5167964;28;20053;-70
2023/04/05 05:03:47;;;;;;;8.82;3.13;;;2.80;99.90;;;2.51;86.86;101668.88;5177127;28;20538;-71
2023/04/05 05:06:24;;;;;;;6.40;3.22;;;2.70;99.90;;;2.47;87.25;101672.84;5168179;28;20076;-69
2023/04/05 05:08:56;;;;;;;4.72;2.60;;;2.70;99.90;;;2.45;87.71;101670.16;5184855;28;20113;-70
2023/04/05 05:11:30;;;;;;;5.90;2.65;;;2.70;99.90;;;2.43;87.61;101664.00;5168348;28;20042;-71
2023/04/05 05:14:03;;;;;;;5.35;2.30;;;2.70;99.90;;;2.45;88.24;101661.53;5167348;28;20038;-71
2023/04/05 05:16:35;;;;;;;3.88;2.55;;;2.70;99.90;;;2.45;87.99;101664.13;5185486;28;20082;-71
2023/04/05 05:19:07;;;;;;;3.88;1.98;;;2.70;99.90;;;2.45;88.19;101667.59;5176709;28;20120;-70
2023/04/05 05:21:52;;;;;;;3.95;2.58;;;2.70;99.90;;;2.45;88.48;101671.84;5167176;28;20049;-70
2023/04/05 05:24:24;;;;;;;5.03;2.40;;;2.70;99.90;;;2.44;88.89;101668.38;5178232;28;20045;-70
2023/04/05 05:26:57;;;;;;;5.00;2.55;;;2.70;99.90;;;2.43;88.90;101663.09;5185032;28;20070;-70
2023/04/05 05:29:30;;;;;;;5.70;2.33;;;2.70;99.90;;;2.43;88.59;101671.72;5185227;28;20050;-57
2023/04/05 05:32:03;;;;;;;6.50;2.55;;;2.70;99.90;;;2.44;89.50;101660.66;5184274;28;20041;-58
2023/04/05 05:34:35;;;;;;;6.35;2.47;;;2.70;99.90;;;2.48;89.83;101669.53;5184475;28;20056;-57
2023/04/05 05:37:08;;;;;;;3.80;2.25;;;2.70;99.90;;;2.52;90.09;101661.25;5183339;28;20046;-58
2023/04/05 05:39:40;;;;;;;6.53;2.28;;;2.80;99.90;;;2.57;90.23;101659.97;5184429;28;20122;-57
2023/04/05 05:42:13;;;;;;;7.07;2.97;;;2.80;99.90;;;2.62;90.31;101662.91;5184000;28;20046;-56
2023/04/05 05:44:45;;;;;;;4.65;2.40;;;2.80;99.90;;;2.66;90.35;101664.94;5183671;28;20498;-58
2023/04/05 05:47:20;;;;;;;4.88;2.72;;;2.90;99.90;;;2.68;90.04;101660.84;5183795;28;20046;-56
2023/04/05 05:49:52;;;;;;;5.35;2.63;;;2.90;99.90;;;2.73;90.11;101662.97;5183804;28;20038;-57
2023/04/05 05:52:25;;;;;;;5.60;2.25;;;3.00;99.90;;;2.82;88.95;101665.41;5184316;28;20046;-56
2023/04/05 05:54:57;;;;;;;3.80;2.05;;;3.00;99.90;;;2.86;88.78;101664.84;5183745;28;20487;-57
2023/04/05 05:57:30;;;;;;;5.60;2.30;;;3.10;99.90;;;2.91;89.04;101668.69;5183823;28;20034;-55
2023/04/05 06:00:07;;;;;;;5.75;2.97;;;3.10;99.90;;;2.96;88.19;101675.13;5183347;28;20042;-56
2023/04/05 06:02:43;;;;;;;8.10;3.20;;;3.20;99.90;;;3.05;87.91;101679.19;5183710;28;20053;-54
2023/04/05 06:05:15;;;;;;;5.63;2.90;;;3.30;99.90;;;3.10;86.67;101688.19;5183633;28;20057;-56
2023/04/05 06:07:47;;;;;;;6.07;2.80;;;3.30;99.90;;;3.19;86.36;101678.59;5175792;28;20089;-55
2023/04/05 06:10:20;;;;;;;5.63;2.67;;;3.40;99.90;;;3.26;85.79;101686.94;5183294;28;20132;-56
2023/04/05 06:12:54;;;;;;;6.80;2.92;;;3.50;99.90;;;3.34;85.13;101684.06;5183402;28;20510;-55
2023/04/05 06:15:26;;;;;;;6.93;2.90;;;3.50;99.90;;;3.41;84.59;101674.34;5184579;28;20080;-55
2023/04/05 06:17:58;;;;;;;4.32;2.85;;;3.60;99.90;;;3.53;84.50;101679.53;5183964;28;20402;-55
2023/04/05 06:20:30;;;;;;;5.13;2.83;;;3.70;99.90;;;3.76;84.00;101678.72;5184034;28;20042;-55
2023/04/05 06:23:02;;;;;;;8.20;3.30;;;3.90;99.90;;;5.10;83.81;101682.53;5183087;28;20052;-56
2023/04/05 06:25:35;;;;;;;6.63;3.00;;;4.60;99.90;;;7.65;76.31;101677.75;5183978;28;20041;-56
2023/04/05 06:28:08;;;;;;;5.60;2.85;;;6.20;99.90;;;9.96;66.43;101676.88;5183002;28;20042;-57
2023/04/05 06:30:40;;;;;;;5.07;3.13;;;8.00;98.20;;;11.84;58.46;101679.78;5184262;28;20049;-57
2023/04/05 06:33:12;;;;;;;8.95;3.30;;;9.80;92.10;;;13.43;53.44;101675.75;5180133;28;20112;-55
2023/04/05 06:35:45;;;;;;;4.20;2.75;;;11.30;83.10;;;14.50;49.87;101687.44;5178748;28;20141;-56
2023/04/05 06:38:17;;;;;;;4.10;2.55;;;12.60;74.70;;;15.35;47.23;101682.22;5182515;28;20518;-57
2023/04/05 06:40:49;;;;;;;5.88;3.03;;;13.50;68.90;;;16.12;45.23;101677.38;5183616;28;20439;-56
2023/04/05 06:43:22;;;;;;;6.38;3.10;;;14.40;65.10;;;16.78;43.43;101681.69;5182965;28;20042;-56
2023/04/05 06:45:56;;;;;;;4.85;2.70;;;15.10;61.70;;;17.38;42.11;101676.00;5165297;28;20049;-56
2023/04/05 06:48:29;;;;;;;9.32;3.28;;;15.70;59.20;;;17.87;41.00;101682.28;5183472;28;20037;-58
2023/04/05 06:51:03;;;;;;;5.65;3.28;;;16.20;57.40;;;18.27;40.08;101683.00;5182808;28;20042;-56
2023/04/05 06:53:35;;;;;;;6.18;2.80;;;16.60;56.10;;;18.60;39.30;101678.28;5183164;28;20053;-57
2023/04/05 06:56:10;;;;;;;4.35;2.40;;;17.00;54.70;;;18.85;38.71;101678.72;5182595;28;20410;-56
2023/04/05 06:58:44;;;;;;;7.40;3.05;;;17.30;53.80;;;19.08;38.21;101687.84;5183250;28;20046;-58
2023/04/05 07:01:16;;;;;;;5.30;2.95;;;17.60;53.00;;;19.06;37.59;101689.56;5182810;28;20123;-56
2023/04/05 07:03:48;;;;;;;4.75;2.47;;;17.70;51.90;;;19.07;37.14;101678.13;5182913;28;20061;-58
2023/04/05 07:06:22;;;;;;;4.72;2.42;;;17.80;51.20;;;18.93;36.94;101683.22;5165261;28;20056;-57
2023/04/05 07:08:54;;;;;;;5.32;2.95;;;17.80;50.80;;;18.45;37.10;101678.00;5182021;28;20053;-57
2023/04/05 07:11:27;;;;;;;5.70;3.17;;;17.60;50.30;;;18.34;37.72;101679.63;5173131;28;20044;-57
2023/04/05 07:14:00;;;;;;;4.32;2.42;;;17.40;50.90;;;18.28;38.04;101675.13;5154397;28;20042;-57
2023/04/05 07:16:32;;;;;;;4.00;2.53;;;17.40;51.20;;;18.58;37.78;101680.03;5173293;28;20054;-56
2023/04/05 07:19:06;;;;;;;4.68;2.50;;;17.50;51.10;;;18.64;37.36;101674.81;5171362;28;20054;-56
2023/04/05 07:21:38;;;;;;;4.25;2.70;;;17.70;50.60;;;18.64;37.45;101677.44;5176949;28;20470;-57
2023/04/05 07:24:10;;;;;;;3.75;2.65;;;17.70;50.40;;;18.45;37.37;101670.09;5180339;28;20042;-57
2023/04/05 07:26:43;;;;;;;5.45;3.10;;;17.60;50.20;;;18.36;36.56;101662.03;5182487;28;20042;-57
2023/04/05 07:29:16;;;;;;;4.50;1.98;;;17.50;49.40;;;18.27;43.70;101672.47;5182093;28;20050;-58
2023/04/05 07:31:48;;;;;;;10.57;3.28;;;17.50;55.70;;;18.50;37.80;101663.16;5164967;28;20057;-59
2023/04/05 07:34:20;;;;;;;5.85;2.58;;;17.60;50.50;;;18.52;37.24;101663.16;5182355;28;20034;-58
2023/04/05 07:36:52;;;;;;;5.22;2.70;;;17.60;49.90;;;18.47;36.81;101665.75;5182052;28;20038;-59
2023/04/05 07:39:24;;;;;;;4.63;3.15;;;17.50;49.30;;;18.47;37.26;101659.59;5174156;28;20056;-60
2023/04/05 07:41:56;;;;;;;8.50;2.55;;;17.50;49.80;;;18.39;37.21;101662.09;5182098;28;20037;-58
2023/04/05 07:44:30;;;;;;;6.78;2.95;;;17.40;49.70;;;18.49;38.05;101658.75;5182413;28;20050;-58
2023/04/05 07:47:02;;;;;;;8.13;2.70;;;17.40;51.50;;;18.77;37.43;101664.47;5181978;28;20042;-58
2023/04/05 07:49:36;;;;;;;6.00;2.85;;;17.50;50.30;;;19.06;37.05;101654.34;5182094;28;20096;-56
2023/04/05 07:52:08;;;;;;;5.25;2.65;;;17.50;50.20;;;19.20;36.88;101653.66;5180355;28;20129;-58
2023/04/05 07:54:42;;;;;;;5.03;2.70;;;17.60;50.30;;;19.52;35.88;101661.09;5175804;28;20048;-59
2023/04/05 07:57:17;;;;;;;4.38;2.92;;;17.60;49.40;;;19.75;35.23;101659.59;5181399;28;20104;-58
2023/04/05 07:59:51;;;;;;;5.50;2.50;;;17.70;49.10;;;19.87;35.17;101661.50;5139911;28;20585;-59
2023/04/05 08:02:23;;;;;;;;;;;17.70;49.10;;;20.10;34.57;101659.09;5170281;28;20050;-57
2023/04/05 08:04:55;;;;;;;3.95;2.55;;;17.70;48.70;;;20.62;33.94;101659.56;5145528;28;19925;-59
2023/04/05 08:07:27;;;;;;;6.30;3.00;;;18.00;48.40;;;21.01;33.56;101652.75;5156884;28;20041;-58
2023/04/05 08:10:00;;;;;;;5.60;3.03;;;18.40;48.10;;;21.32;33.25;101664.41;5156653;28;20054;-57
2023/04/05 08:12:34;;;;;;;6.57;3.10;;;18.60;47.80;;;21.93;32.37;101665.50;5168202;28;20042;-57
2023/04/05 08:15:09;;;;;;;6.90;2.35;;;19.00;47.10;;;22.73;31.73;101661.09;5176403;28;20048;-58
2023/04/05 08:17:41;;;;;;;5.43;3.33;;;19.60;46.60;;;23.06;30.80;101653.09;5168325;28;20132;-58
2023/04/05 08:20:13;;;;;;;4.75;2.63;;;20.00;45.70;;;23.31;30.71;101653.88;5172229;28;20441;-58
2023/04/05 08:22:46;;;;;;;5.55;2.63;;;20.30;45.20;;;23.97;30.92;101655.31;5173782;28;20409;-59
2023/04/05 08:25:18;;;;;;;4.28;2.75;;;20.90;45.80;;;24.58;29.54;101652.19;5183089;28;20522;-58
2023/04/05 08:27:50;;;;;;;4.75;2.75;;;21.50;44.40;;;24.84;28.66;101653.69;5182142;28;20038;-58
2023/04/05 08:30:23;;;;;;;6.35;3.20;;;21.70;43.40;;;24.70;28.69;101651.16;5183066;28;20046;-58
2023/04/05 08:32:55;;;;;;;5.63;2.80;;;21.70;43.20;;;24.82;28.53;101650.16;5183188;28;20046;-58
2023/04/05 08:35:27;;;;;;;4.45;2.47;;;21.80;43.00;;;25.10;28.92;101656.09;5183131;28;20038;-58
2023/04/05 08:37:59;;;;;;;4.50;2.80;;;22.00;43.00;;;24.87;29.01;101645.69;5182660;28;20572;-58
2023/04/05 08:40:40;;;;;;;4.57;2.72;;;21.90;42.80;;;24.60;28.95;101650.41;5183503;28;20847;-59
2023/04/05 08:43:21;;;;;;;4.10;2.97;;;21.80;43.00;;;24.57;28.78;101650.41;5184947;28;20042;-58
2023/04/05 08:45:59;;;;;;;3.53;2.63;;;21.70;42.90;;;24.56;28.98;101651.31;5185391;28;20046;-58
2023/04/05 08:48:35;;;;;;;3.30;2.35;;;21.70;42.90;;;24.70;28.79;101655.63;5169667;28;20066;-58
2023/04/05 08:51:08;;;;;;;4.97;2.65;;;21.70;43.00;;;24.68;29.42;101650.31;5184890;28;20050;-58
2023/04/05 08:53:40;;;;;;;5.45;2.83;;;21.70;43.30;;;24.74;29.25;101649.38;5185029;28;20088;-58
2023/04/05 08:56:16;;;;;;;4.22;2.33;;;21.70;43.20;;;24.46;28.85;101641.66;5184897;28;20125;-59
2023/04/05 08:58:53;;;;;;;4.82;2.85;;;21.60;42.50;;;24.31;28.99;101642.63;5184896;28;20394;-57
2023/04/05 09:01:30;;;;;;;4.63;2.55;;;21.50;42.60;;;24.18;29.54;101640.94;5184620;28;20540;-58
2023/04/05 09:04:06;;;;;;;4.20;2.35;;;21.50;43.00;;;23.84;29.71;101629.66;5184403;28;20092;-58
2023/04/05 09:06:39;;;;;;;5.07;3.00;;;21.30;42.80;;;23.54;29.98;101631.59;5184748;28;20125;-58
2023/04/05 09:09:12;;;;;;;5.13;2.60;;;21.20;43.10;;;22.68;30.25;101633.63;5183882;28;20049;-57
2023/04/05 09:11:44;;;;;;;5.53;2.92;;;20.70;43.10;;;21.89;31.84;101637.16;5184931;28;20160;-57
2023/04/05 09:14:17;;;;;;;4.07;2.70;;;20.20;44.20;;;21.53;32.88;101630.03;5184303;28;20042;-57
2023/04/05 09:16:51;;;;;;;4.35;2.80;;;20.00;45.10;;;21.09;32.89;101635.09;5184789;28;20037;-57
2023/04/05 09:19:23;;;;;;;4.28;2.67;;;19.80;44.90;;;20.27;32.60;101630.09;5182930;28;20038;-58
2023/04/05 09:21:59;;;;;;;4.13;2.70;;;19.40;44.20;;;19.42;34.02;101627.47;5184932;28;20064;-56
2023/04/05 09:24:35;;;;;;;4.82;2.88;;;18.70;45.20;;;18.91;35.81;101618.03;5169253;28;20049;-57
2023/04/05 09:27:09;;;;;;;4.05;2.70;;;18.30;46.70;;;18.60;35.91;101622.84;5184297;28;20042;-58
2023/04/05 09:29:44;;;;;;;3.75;2.50;;;18.00;47.00;;;18.33;35.56;101612.75;5184455;28;20042;-57
2023/04/05 09:32:20;;;;;;;4.25;2.80;;;17.70;46.50;;;18.17;36.07;101614.22;5184428;28;20046;-57
2023/04/05 09:34:53;;;;;;;5.00;2.92;;;17.60;47.20;;;17.89;35.87;101623.41;5184495;28;20044;-57
2023/04/05 09:37:29;;;;;;;3.70;2.45;;;17.30;47.00;;;17.81;36.71;101618.88;5166138;28;20049;-56
2023/04/05 09:40:05;;;;;;;3.33;2.33;;;17.20;47.60;;;17.86;36.81;101618.06;5184387;28;20069;-59
2023/04/05 09:42:44;;;;;;;4.07;2.92;;;17.20;47.80;;;17.95;36.33;101614.72;5162868;28;20046;-57
2023/04/05 09:45:18;;;;;;;3.55;2.63;;;17.30;47.50;;;18.01;36.39;101608.69;5182153;28;20054;-56
2023/04/05 09:47:57;;;;;;;4.38;2.33;;;17.30;47.60;;;17.92;36.65;101612.03;5166538;28;20336;-57
2023/04/05 09:50:29;;;;;;;5.13;3.00;;;17.30;47.60;;;17.88;36.97;101607.56;5183759;28;20049;-56
2023/04/05 09:53:09;;;;;;;4.80;2.97;;;17.30;48.00;;;17.73;37.71;101602.88;5157976;28;20459;-57
2023/04/05 09:55:41;;;;;;;6.10;2.97;;;17.20;48.60;;;17.73;37.65;101607.28;5183772;28;20049;-58
2023/04/05 09:58:13;;;;;;;7.22;3.00;;;17.10;48.60;;;17.70;38.05;101599.28;5165887;28;20154;-57
2023/04/05 10:00:52;;;;;;;5.60;3.00;;;17.10;49.00;;;17.48;38.58;101588.34;5184288;28;20565;-57
2023/04/05 10:03:26;;;;;;;5.55;2.70;;;16.90;49.30;;;17.33;39.60;101593.31;5183429;28;20045;-58
2023/04/05 10:05:58;;;;;;;4.38;2.75;;;16.80;50.20;;;17.31;39.86;101585.38;5183743;28;20517;-56
2023/04/05 10:08:30;;;;;;;4.70;3.00;;;16.70;51.10;;;17.12;39.54;101587.63;5183083;28;20049;-56
2023/04/05 10:11:06;;;;;;;5.25;2.53;;;16.60;50.10;;;17.16;42.36;101594.72;5173744;28;20039;-57
2023/04/05 10:13:39;;;;;;;4.97;2.78;;;16.60;53.80;;;17.31;40.46;101587.13;5170989;28;20050;-58
2023/04/05 10:16:19;;;;;;;3.75;2.45;;;16.70;51.10;;;17.62;43.90;101585.97;5159293;28;20054;-56
2023/04/05 10:18:53;;;;;;;4.43;2.83;;;17.00;56.10;;;17.86;42.96;101585.53;5169416;28;20052;-57
2023/04/05 10:21:36;;;;;;;4.85;3.20;;;17.20;55.00;;;17.98;40.16;101590.16;5173430;28;20487;-57
2023/04/05 10:24:20;;;;;;;3.67;2.55;;;17.40;51.20;;;17.97;39.40;101577.81;5172395;28;20078;-59
2023/04/05 10:27:02;;;;;;;4.00;2.50;;;17.40;50.20;;;17.95;39.23;101572.53;5155934;28;20601;-57
2023/04/05 10:29:45;;;;;;;3.75;2.13;;;17.40;50.20;;;17.95;39.01;101572.53;5170743;28;20787;-57
2023/04/05 10:32:27;;;;;;;3.75;2.60;;;17.40;50.00;;;17.95;39.67;101579.56;5165890;28;20522;-57
2023/04/05 10:35:09;;;;;;;4.93;2.20;;;17.40;50.50;;;18.01;44.21;101564.72;5183842;28;20437;-55
2023/04/05 10:37:57;;;;;;;6.05;3.17;;;17.40;54.90;;;17.84;39.70;101576.72;5178808;28;20105;-55
2023/04/05 10:40:33;;;;;;;3.65;2.63;;;17.40;50.60;;;17.62;38.76;101576.31;5167900;28;20052;-55
2023/04/05 10:43:15;;;;;;;4.43;2.50;;;17.20;49.70;;;17.61;38.48;101568.38;5175806;28;20150;-58
2023/04/05 10:45:52;;;;;;;4.95;2.50;;;17.10;49.50;;;17.72;41.14;101574.75;5178714;28;20085;-56
2023/04/05 10:48:43;;;;;;;2.50;2.00;;;17.20;53.30;;;17.92;41.24;101567.19;5175741;28;20048;-58
2023/04/05 10:51:16;;;;;;;5.53;2.70;;;17.30;52.60;;;17.99;39.35;101566.41;5182960;28;20418;-56
2023/04/05 10:53:49;;;;;;;3.45;2.15;;;17.50;50.60;;;17.95;38.16;101559.34;5195897;23;20148;-81
2023/04/05 10:56:22;;;;;;;4.88;2.30;;;17.40;49.20;;;17.92;38.40;101559.28;5161130;28;20081;-82